sensor_id;sensor_type;location;lat;lon;timestamp;temperature;humidity
50067;DHT22;35952;52.524;13.340;2023-03-23T00:01:54;12.90;99.90
50067;DHT22;35952;52.524;13.340;2023-03-23T00:04:20;13.00;99.90
50067;DHT22;35952;52.524;13.340;2023-03-23T00:06:46;13.00;99.90
50067;DHT22;35952;52.524;13.340;2023-03-23T00:09:13;13.00;99.90
50067;DHT22;35952;52.524;13.340;2023-03-23T00:11:41;12.90;99.90
50067;DHT22;35952;52.524;13.340;2023-03-23T00:14:08;12.60;99.90
50067;DHT22;35952;52.524;13.340;2023-03-23T00:16:39;12.60;99.90
50067;DHT22;35952;52.524;13.340;2023-03-23T00:19:10;12.50;99.90
50067;DHT22;35952;52.524;13.340;2023-03-23T00:21:39;12.60;99.90
50067;DHT22;35952;52.524;13.340;2023-03-23T00:24:15;12.70;99.90
50067;DHT22;35952;52.524;13.340;2023-03-23T00:26:43;12.60;99.90
50067;DHT22;35952;52.524;13.340;2023-03-23T00:31:39;12.70;99.90
50067;DHT22;35952;52.524;13.340;2023-03-23T00:34:05;12.60;99.90
50067;DHT22;35952;52.524;13.340;2023-03-23T00:36:33;12.70;99.90
50067;DHT22;35952;52.524;13.340;2023-03-23T00:39:01;12.70;99.90
50067;DHT22;35952;52.524;13.340;2023-03-23T00:41:27;12.70;99.90
50067;DHT22;35952;52.524;13.340;2023-03-23T00:43:57;12.60;99.90
50067;DHT22;35952;52.524;13.340;2023-03-23T00:46:23;12.50;99.90
50067;DHT22;35952;52.524;13.340;2023-03-23T00:48:50;12.40;99.90
50067;DHT22;35952;52.524;13.340;2023-03-23T00:51:16;12.20;99.90
50067;DHT22;35952;52.524;13.340;2023-03-23T00:53:42;12.20;99.90
50067;DHT22;35952;52.524;13.340;2023-03-23T00:56:08;12.30;99.90
50067;DHT22;35952;52.524;13.340;2023-03-23T00:58:34;12.50;99.90
50067;DHT22;35952;52.524;13.340;2023-03-23T01:01:00;12.50;99.90
50067;DHT22;35952;52.524;13.340;2023-03-23T01:03:25;12.30;99.90
50067;DHT22;35952;52.524;13.340;2023-03-23T01:05:52;12.20;99.90
50067;DHT22;35952;52.524;13.340;2023-03-23T01:08:18;12.20;99.90
50067;DHT22;35952;52.524;13.340;2023-03-23T01:10:45;12.30;99.90
50067;DHT22;35952;52.524;13.340;2023-03-23T01:13:11;12.20;99.90
50067;DHT22;35952;52.524;13.340;2023-03-23T01:15:37;12.30;99.90
50067;DHT22;35952;52.524;13.340;2023-03-23T01:18:03;12.10;99.90
50067;DHT22;35952;52.524;13.340;2023-03-23T01:20:28;12.10;99.90
50067;DHT22;35952;52.524;13.340;2023-03-23T01:22:57;12.20;99.90
50067;DHT22;35952;52.524;13.340;2023-03-23T01:25:29;12.30;99.90
50067;DHT22;35952;52.524;13.340;2023-03-23T01:27:56;12.20;99.90
50067;DHT22;35952;52.524;13.340;2023-03-23T01:30:22;12.10;99.90
50067;DHT22;35952;52.524;13.340;2023-03-23T01:32:48;12.00;99.90
50067;DHT22;35952;52.524;13.340;2023-03-23T01:35:15;12.00;99.90
50067;DHT22;35952;52.524;13.340;2023-03-23T01:37:41;12.10;99.90
50067;DHT22;35952;52.524;13.340;2023-03-23T01:40:07;12.10;99.90
50067;DHT22;35952;52.524;13.340;2023-03-23T01:42:35;12.00;99.90
50067;DHT22;35952;52.524;13.340;2023-03-23T01:47:52;12.20;99.90
50067;DHT22;35952;52.524;13.340;2023-03-23T01:50:22;12.30;99.90
50067;DHT22;35952;52.524;13.340;2023-03-23T01:52:50;12.30;99.90
50067;DHT22;35952;52.524;13.340;2023-03-23T01:55:18;12.20;99.90
50067;DHT22;35952;52.524;13.340;2023-03-23T01:57:44;12.20;99.90
50067;DHT22;35952;52.524;13.340;2023-03-23T02:00:10;12.20;99.90
50067;DHT22;35952;52.524;13.340;2023-03-23T02:02:42;12.20;99.90
50067;DHT22;35952;52.524;13.340;2023-03-23T02:05:12;12.30;99.90
50067;DHT22;35952;52.524;13.340;2023-03-23T02:07:38;12.20;99.90
50067;DHT22;35952;52.524;13.340;2023-03-23T02:10:04;12.30;99.90
50067;DHT22;35952;52.524;13.340;2023-03-23T02:12:30;12.20;99.90
50067;DHT22;35952;52.524;13.340;2023-03-23T02:14:56;12.10;99.90
50067;DHT22;35952;52.524;13.340;2023-03-23T02:20:33;12.30;99.90
50067;DHT22;35952;52.524;13.340;2023-03-23T02:23:14;12.40;99.90
50067;DHT22;35952;52.524;13.340;2023-03-23T02:25:58;12.30;99.90
50067;DHT22;35952;52.524;13.340;2023-03-23T02:34:17;12.50;99.90
50067;DHT22;35952;52.524;13.340;2023-03-23T02:36:59;12.50;99.90
50067;DHT22;35952;52.524;13.340;2023-03-23T02:39:33;12.60;99.90
50067;DHT22;35952;52.524;13.340;2023-03-23T02:42:06;12.50;99.90
50067;DHT22;35952;52.524;13.340;2023-03-23T02:44:35;12.60;99.90
50067;DHT22;35952;52.524;13.340;2023-03-23T02:47:06;12.60;99.90
50067;DHT22;35952;52.524;13.340;2023-03-23T02:49:34;12.60;99.90
50067;DHT22;35952;52.524;13.340;2023-03-23T02:52:05;12.60;99.90
50067;DHT22;35952;52.524;13.340;2023-03-23T02:54:32;12.40;99.90
50067;DHT22;35952;52.524;13.340;2023-03-23T02:56:58;12.30;99.90
50067;DHT22;35952;52.524;13.340;2023-03-23T02:59:24;12.40;99.90
50067;DHT22;35952;52.524;13.340;2023-03-23T03:02:06;12.40;99.90
50067;DHT22;35952;52.524;13.340;2023-03-23T03:04:34;12.20;99.90
50067;DHT22;35952;52.524;13.340;2023-03-23T03:09:59;12.00;99.90
50067;DHT22;35952;52.524;13.340;2023-03-23T03:12:38;12.10;99.90
50067;DHT22;35952;52.524;13.340;2023-03-23T03:15:29;12.20;99.90
50067;DHT22;35952;52.524;13.340;2023-03-23T03:18:24;12.20;99.90
50067;DHT22;35952;52.524;13.340;2023-03-23T03:20:55;12.20;99.90
50067;DHT22;35952;52.524;13.340;2023-03-23T03:23:25;12.30;99.90
50067;DHT22;35952;52.524;13.340;2023-03-23T03:25:53;12.30;99.90
50067;DHT22;35952;52.524;13.340;2023-03-23T03:28:24;12.30;99.90
50067;DHT22;35952;52.524;13.340;2023-03-23T03:30:54;12.10;99.90
50067;DHT22;35952;52.524;13.340;2023-03-23T03:33:22;12.20;99.90
50067;DHT22;35952;52.524;13.340;2023-03-23T03:35:54;12.20;99.90
50067;DHT22;35952;52.524;13.340;2023-03-23T03:38:20;12.30;99.90
50067;DHT22;35952;52.524;13.340;2023-03-23T03:40:46;12.30;99.90
50067;DHT22;35952;52.524;13.340;2023-03-23T03:43:12;12.20;99.90
50067;DHT22;35952;52.524;13.340;2023-03-23T03:45:38;12.20;99.90
50067;DHT22;35952;52.524;13.340;2023-03-23T03:48:03;12.10;99.90
50067;DHT22;35952;52.524;13.340;2023-03-23T03:50:29;12.10;99.90
50067;DHT22;35952;52.524;13.340;2023-03-23T03:52:55;12.10;99.90
50067;DHT22;35952;52.524;13.340;2023-03-23T03:55:20;11.90;99.90
50067;DHT22;35952;52.524;13.340;2023-03-23T03:57:46;12.00;99.90
50067;DHT22;35952;52.524;13.340;2023-03-23T04:00:12;11.90;99.90
50067;DHT22;35952;52.524;13.340;2023-03-23T04:02:43;12.00;99.90
50067;DHT22;35952;52.524;13.340;2023-03-23T04:05:09;11.90;99.90
50067;DHT22;35952;52.524;13.340;2023-03-23T04:07:36;12.00;99.90
50067;DHT22;35952;52.524;13.340;2023-03-23T04:10:07;12.00;99.90
50067;DHT22;35952;52.524;13.340;2023-03-23T04:12:34;12.10;99.90
50067;DHT22;35952;52.524;13.340;2023-03-23T04:15:00;12.00;99.90
50067;DHT22;35952;52.524;13.340;2023-03-23T04:17:25;11.90;99.90
50067;DHT22;35952;52.524;13.340;2023-03-23T04:19:52;11.70;99.90
50067;DHT22;35952;52.524;13.340;2023-03-23T04:22:17;11.80;99.90
50067;DHT22;35952;52.524;13.340;2023-03-23T04:24:43;11.80;99.90
50067;DHT22;35952;52.524;13.340;2023-03-23T04:27:08;11.70;99.90
50067;DHT22;35952;52.524;13.340;2023-03-23T04:29:34;11.80;99.90
50067;DHT22;35952;52.524;13.340;2023-03-23T04:32:00;11.70;99.90
50067;DHT22;35952;52.524;13.340;2023-03-23T04:34:27;11.90;99.90
50067;DHT22;35952;52.524;13.340;2023-03-23T04:36:52;12.00;99.90
50067;DHT22;35952;52.524;13.340;2023-03-23T04:39:18;12.10;99.90
50067;DHT22;35952;52.524;13.340;2023-03-23T04:41:44;12.00;99.90
50067;DHT22;35952;52.524;13.340;2023-03-23T04:44:11;12.10;99.90
50067;DHT22;35952;52.524;13.340;2023-03-23T04:46:42;12.10;99.90
50067;DHT22;35952;52.524;13.340;2023-03-23T04:49:10;11.80;99.90
50067;DHT22;35952;52.524;13.340;2023-03-23T04:51:36;11.70;99.90
50067;DHT22;35952;52.524;13.340;2023-03-23T04:54:02;11.60;99.90
50067;DHT22;35952;52.524;13.340;2023-03-23T04:56:27;11.60;99.90
50067;DHT22;35952;52.524;13.340;2023-03-23T04:58:53;11.60;99.90
50067;DHT22;35952;52.524;13.340;2023-03-23T05:01:19;11.60;99.90
50067;DHT22;35952;52.524;13.340;2023-03-23T05:03:44;11.70;99.90
50067;DHT22;35952;52.524;13.340;2023-03-23T05:06:10;11.80;99.90
50067;DHT22;35952;52.524;13.340;2023-03-23T05:08:36;11.80;99.90
50067;DHT22;35952;52.524;13.340;2023-03-23T05:11:05;11.70;99.90
50067;DHT22;35952;52.524;13.340;2023-03-23T05:13:32;11.60;99.90
50067;DHT22;35952;52.524;13.340;2023-03-23T05:15:58;11.50;99.90
50067;DHT22;35952;52.524;13.340;2023-03-23T05:18:23;11.40;99.90
50067;DHT22;35952;52.524;13.340;2023-03-23T05:20:49;11.60;99.90
50067;DHT22;35952;52.524;13.340;2023-03-23T05:23:18;11.50;99.90
50067;DHT22;35952;52.524;13.340;2023-03-23T05:25:55;11.30;99.90
50067;DHT22;35952;52.524;13.340;2023-03-23T05:28:21;11.40;99.90
50067;DHT22;35952;52.524;13.340;2023-03-23T05:30:47;11.30;99.90
50067;DHT22;35952;52.524;13.340;2023-03-23T05:33:13;11.20;99.90
50067;DHT22;35952;52.524;13.340;2023-03-23T05:35:38;11.30;99.90
50067;DHT22;35952;52.524;13.340;2023-03-23T05:38:04;11.40;99.90
50067;DHT22;35952;52.524;13.340;2023-03-23T05:40:30;11.30;99.90
50067;DHT22;35952;52.524;13.340;2023-03-23T05:42:56;11.30;99.90
50067;DHT22;35952;52.524;13.340;2023-03-23T05:45:24;11.10;99.90
50067;DHT22;35952;52.524;13.340;2023-03-23T05:47:50;11.20;99.90
50067;DHT22;35952;52.524;13.340;2023-03-23T05:50:15;11.20;99.90
50067;DHT22;35952;52.524;13.340;2023-03-23T05:52:42;11.30;99.90
50067;DHT22;35952;52.524;13.340;2023-03-23T05:55:08;11.30;99.90
50067;DHT22;35952;52.524;13.340;2023-03-23T05:57:34;11.30;99.90
50067;DHT22;35952;52.524;13.340;2023-03-23T05:59:59;11.30;99.90
50067;DHT22;35952;52.524;13.340;2023-03-23T06:02:25;11.30;99.90
50067;DHT22;35952;52.524;13.340;2023-03-23T06:04:54;11.30;99.90
50067;DHT22;35952;52.524;13.340;2023-03-23T06:07:23;11.20;99.90
50067;DHT22;35952;52.524;13.340;2023-03-23T06:09:50;11.30;99.90
50067;DHT22;35952;52.524;13.340;2023-03-23T06:12:16;11.20;99.90
50067;DHT22;35952;52.524;13.340;2023-03-23T06:14:45;11.20;99.90
50067;DHT22;35952;52.524;13.340;2023-03-23T06:17:12;11.20;99.90
50067;DHT22;35952;52.524;13.340;2023-03-23T06:19:37;11.10;99.90
50067;DHT22;35952;52.524;13.340;2023-03-23T06:22:03;11.20;99.90
50067;DHT22;35952;52.524;13.340;2023-03-23T06:24:29;11.00;99.90
50067;DHT22;35952;52.524;13.340;2023-03-23T06:26:54;11.00;99.90
50067;DHT22;35952;52.524;13.340;2023-03-23T06:29:20;11.00;99.90
50067;DHT22;35952;52.524;13.340;2023-03-23T06:31:53;11.10;99.90
50067;DHT22;35952;52.524;13.340;2023-03-23T06:34:21;11.10;99.90
50067;DHT22;35952;52.524;13.340;2023-03-23T06:36:47;11.10;99.90
50067;DHT22;35952;52.524;13.340;2023-03-23T06:39:12;11.20;99.90
50067;DHT22;35952;52.524;13.340;2023-03-23T06:41:39;11.10;99.90
50067;DHT22;35952;52.524;13.340;2023-03-23T06:44:05;11.10;99.90
50067;DHT22;35952;52.524;13.340;2023-03-23T06:46:34;11.10;99.90
50067;DHT22;35952;52.524;13.340;2023-03-23T06:49:00;11.20;99.90
50067;DHT22;35952;52.524;13.340;2023-03-23T06:51:25;11.20;99.90
50067;DHT22;35952;52.524;13.340;2023-03-23T06:53:51;11.20;99.90
50067;DHT22;35952;52.524;13.340;2023-03-23T06:56:17;11.10;99.90
50067;DHT22;35952;52.524;13.340;2023-03-23T06:58:42;11.10;99.90
50067;DHT22;35952;52.524;13.340;2023-03-23T07:01:08;11.20;99.90
50067;DHT22;35952;52.524;13.340;2023-03-23T07:03:35;11.20;99.90
50067;DHT22;35952;52.524;13.340;2023-03-23T07:06:02;11.20;99.90
50067;DHT22;35952;52.524;13.340;2023-03-23T07:08:28;11.00;99.90
50067;DHT22;35952;52.524;13.340;2023-03-23T07:10:55;10.80;99.90
50067;DHT22;35952;52.524;13.340;2023-03-23T07:13:21;11.00;99.90
50067;DHT22;35952;52.524;13.340;2023-03-23T07:15:47;11.00;99.90
50067;DHT22;35952;52.524;13.340;2023-03-23T07:18:14;10.80;99.90
50067;DHT22;35952;52.524;13.340;2023-03-23T07:20:40;11.00;99.90
50067;DHT22;35952;52.524;13.340;2023-03-23T07:23:06;10.80;99.90
50067;DHT22;35952;52.524;13.340;2023-03-23T07:25:35;11.00;99.90
50067;DHT22;35952;52.524;13.340;2023-03-23T07:28:02;11.20;99.90
50067;DHT22;35952;52.524;13.340;2023-03-23T07:30:28;11.10;99.90
50067;DHT22;35952;52.524;13.340;2023-03-23T07:32:56;11.20;99.90
50067;DHT22;35952;52.524;13.340;2023-03-23T07:35:22;11.30;99.90
50067;DHT22;35952;52.524;13.340;2023-03-23T07:37:48;11.20;99.90
50067;DHT22;35952;52.524;13.340;2023-03-23T07:40:17;11.30;99.90
50067;DHT22;35952;52.524;13.340;2023-03-23T07:42:45;11.30;99.90
50067;DHT22;35952;52.524;13.340;2023-03-23T07:45:15;11.30;99.90
50067;DHT22;35952;52.524;13.340;2023-03-23T07:47:41;11.20;99.90
50067;DHT22;35952;52.524;13.340;2023-03-23T07:50:07;11.00;99.90
50067;DHT22;35952;52.524;13.340;2023-03-23T07:52:34;10.80;99.90
50067;DHT22;35952;52.524;13.340;2023-03-23T07:55:01;10.90;99.90
50067;DHT22;35952;52.524;13.340;2023-03-23T07:57:27;10.70;99.90
50067;DHT22;35952;52.524;13.340;2023-03-23T07:59:53;10.90;99.90
50067;DHT22;35952;52.524;13.340;2023-03-23T08:02:19;11.30;99.90
50067;DHT22;35952;52.524;13.340;2023-03-23T08:04:45;11.40;99.90
50067;DHT22;35952;52.524;13.340;2023-03-23T08:07:13;11.30;99.90
50067;DHT22;35952;52.524;13.340;2023-03-23T08:09:40;11.50;99.90
50067;DHT22;35952;52.524;13.340;2023-03-23T08:12:06;11.30;99.90
50067;DHT22;35952;52.524;13.340;2023-03-23T08:14:32;11.40;99.90
50067;DHT22;35952;52.524;13.340;2023-03-23T08:16:57;11.60;99.90
50067;DHT22;35952;52.524;13.340;2023-03-23T08:19:24;11.60;99.90
50067;DHT22;35952;52.524;13.340;2023-03-23T08:21:50;11.70;99.90
50067;DHT22;35952;52.524;13.340;2023-03-23T08:24:16;11.80;99.90
50067;DHT22;35952;52.524;13.340;2023-03-23T08:26:42;11.70;99.90
50067;DHT22;35952;52.524;13.340;2023-03-23T08:29:07;11.80;99.90
50067;DHT22;35952;52.524;13.340;2023-03-23T08:31:34;11.80;99.90
50067;DHT22;35952;52.524;13.340;2023-03-23T08:34:01;11.60;99.90
50067;DHT22;35952;52.524;13.340;2023-03-23T08:36:27;11.40;99.90
50067;DHT22;35952;52.524;13.340;2023-03-23T08:38:56;11.40;99.90
50067;DHT22;35952;52.524;13.340;2023-03-23T08:41:22;11.20;99.90
50067;DHT22;35952;52.524;13.340;2023-03-23T08:43:48;11.50;99.90
50067;DHT22;35952;52.524;13.340;2023-03-23T08:46:13;11.60;99.90
50067;DHT22;35952;52.524;13.340;2023-03-23T08:48:39;11.80;99.90
50067;DHT22;35952;52.524;13.340;2023-03-23T08:51:06;12.00;99.90
50067;DHT22;35952;52.524;13.340;2023-03-23T08:53:32;12.10;99.90
50067;DHT22;35952;52.524;13.340;2023-03-23T08:56:06;12.30;99.90
50067;DHT22;35952;52.524;13.340;2023-03-23T08:58:34;12.40;99.90
50067;DHT22;35952;52.524;13.340;2023-03-23T09:01:00;12.40;99.90
50067;DHT22;35952;52.524;13.340;2023-03-23T09:03:26;12.40;99.90
50067;DHT22;35952;52.524;13.340;2023-03-23T09:05:52;12.50;99.90
50067;DHT22;35952;52.524;13.340;2023-03-23T09:08:18;12.80;99.90
50067;DHT22;35952;52.524;13.340;2023-03-23T09:10:44;12.90;99.90
50067;DHT22;35952;52.524;13.340;2023-03-23T09:13:09;12.90;99.90
50067;DHT22;35952;52.524;13.340;2023-03-23T09:15:35;12.90;99.90
50067;DHT22;35952;52.524;13.340;2023-03-23T09:18:02;12.90;99.90
50067;DHT22;35952;52.524;13.340;2023-03-23T09:20:29;12.80;99.90
50067;DHT22;35952;52.524;13.340;2023-03-23T09:22:56;12.80;99.90
50067;DHT22;35952;52.524;13.340;2023-03-23T09:25:23;12.70;99.90
50067;DHT22;35952;52.524;13.340;2023-03-23T09:27:58;12.60;99.90
50067;DHT22;35952;52.524;13.340;2023-03-23T09:30:26;12.90;99.90
50067;DHT22;35952;52.524;13.340;2023-03-23T09:32:53;13.20;99.90
50067;DHT22;35952;52.524;13.340;2023-03-23T09:35:20;13.60;99.90
50067;DHT22;35952;52.524;13.340;2023-03-23T09:37:51;14.10;99.90
50067;DHT22;35952;52.524;13.340;2023-03-23T09:40:23;14.40;99.90
50067;DHT22;35952;52.524;13.340;2023-03-23T09:43:22;15.20;99.90
50067;DHT22;35952;52.524;13.340;2023-03-23T09:56:37;15.50;99.90
50067;DHT22;35952;52.524;13.340;2023-03-23T09:59:20;15.70;99.90
50067;DHT22;35952;52.524;13.340;2023-03-23T10:01:50;15.70;99.90
50067;DHT22;35952;52.524;13.340;2023-03-23T10:04:38;15.80;99.90
50067;DHT22;35952;52.524;13.340;2023-03-23T10:07:14;15.30;99.90
50067;DHT22;35952;52.524;13.340;2023-03-23T10:09:42;15.30;99.90
50067;DHT22;35952;52.524;13.340;2023-03-23T10:12:25;15.20;99.90
50067;DHT22;35952;52.524;13.340;2023-03-23T10:17:36;15.10;99.90
50067;DHT22;35952;52.524;13.340;2023-03-23T10:23:20;15.00;99.90
50067;DHT22;35952;52.524;13.340;2023-03-23T10:26:13;14.90;99.90
50067;DHT22;35952;52.524;13.340;2023-03-23T10:28:48;15.20;99.90
50067;DHT22;35952;52.524;13.340;2023-03-23T10:31:26;15.20;99.90
50067;DHT22;35952;52.524;13.340;2023-03-23T10:33:57;15.40;99.90
50067;DHT22;35952;52.524;13.340;2023-03-23T10:36:37;15.80;99.90
50067;DHT22;35952;52.524;13.340;2023-03-23T10:39:14;15.80;99.90
50067;DHT22;35952;52.524;13.340;2023-03-23T10:41:42;16.10;99.90
50067;DHT22;35952;52.524;13.340;2023-03-23T10:44:16;16.40;99.90
50067;DHT22;35952;52.524;13.340;2023-03-23T10:46:50;16.40;99.90
50067;DHT22;35952;52.524;13.340;2023-03-23T10:49:34;16.10;99.90
50067;DHT22;35952;52.524;13.340;2023-03-23T10:55:12;16.10;99.90
50067;DHT22;35952;52.524;13.340;2023-03-23T10:57:43;16.10;99.90
50067;DHT22;35952;52.524;13.340;2023-03-23T11:00:22;16.00;99.90
50067;DHT22;35952;52.524;13.340;2023-03-23T11:03:39;15.90;99.90
50067;DHT22;35952;52.524;13.340;2023-03-23T11:06:07;15.60;99.90
50067;DHT22;35952;52.524;13.340;2023-03-23T11:13:57;15.30;99.90
50067;DHT22;35952;52.524;13.340;2023-03-23T11:16:25;15.20;99.90
50067;DHT22;35952;52.524;13.340;2023-03-23T11:18:51;15.20;99.90
50067;DHT22;35952;52.524;13.340;2023-03-23T11:21:19;15.20;99.90
50067;DHT22;35952;52.524;13.340;2023-03-23T11:23:51;15.20;99.90
50067;DHT22;35952;52.524;13.340;2023-03-23T11:26:22;15.30;99.90
50067;DHT22;35952;52.524;13.340;2023-03-23T11:29:04;15.30;99.90
50067;DHT22;35952;52.524;13.340;2023-03-23T11:31:33;15.20;99.90
50067;DHT22;35952;52.524;13.340;2023-03-23T11:34:03;15.50;99.90
50067;DHT22;35952;52.524;13.340;2023-03-23T11:36:33;15.60;99.90
50067;DHT22;35952;52.524;13.340;2023-03-23T11:39:00;15.80;99.90
50067;DHT22;35952;52.524;13.340;2023-03-23T11:41:31;16.00;99.90
50067;DHT22;35952;52.524;13.340;2023-03-23T11:43:57;16.00;99.90
50067;DHT22;35952;52.524;13.340;2023-03-23T11:49:37;16.00;99.90
50067;DHT22;35952;52.524;13.340;2023-03-23T11:52:13;16.20;99.90
50067;DHT22;35952;52.524;13.340;2023-03-23T11:54:57;16.20;99.90
50067;DHT22;35952;52.524;13.340;2023-03-23T11:57:24;16.00;99.90
50067;DHT22;35952;52.524;13.340;2023-03-23T11:59:49;16.00;99.90
50067;DHT22;35952;52.524;13.340;2023-03-23T12:02:23;16.00;99.90
50067;DHT22;35952;52.524;13.340;2023-03-23T12:05:13;16.10;99.90
50067;DHT22;35952;52.524;13.340;2023-03-23T12:10:35;16.20;99.90
50067;DHT22;35952;52.524;13.340;2023-03-23T12:13:31;16.10;99.90
50067;DHT22;35952;52.524;13.340;2023-03-23T12:16:23;16.10;99.90
50067;DHT22;35952;52.524;13.340;2023-03-23T12:19:21;15.90;99.90
50067;DHT22;35952;52.524;13.340;2023-03-23T12:22:03;15.80;99.90
50067;DHT22;35952;52.524;13.340;2023-03-23T12:27:43;15.80;99.90
50067;DHT22;35952;52.524;13.340;2023-03-23T12:38:56;15.90;99.90
50067;DHT22;35952;52.524;13.340;2023-03-23T12:41:45;16.00;99.90
50067;DHT22;35952;52.524;13.340;2023-03-23T12:44:14;16.20;99.90
50067;DHT22;35952;52.524;13.340;2023-03-23T12:46:55;16.20;99.90
50067;DHT22;35952;52.524;13.340;2023-03-23T12:50:05;16.00;99.90
50067;DHT22;35952;52.524;13.340;2023-03-23T12:52:35;15.90;99.90
50067;DHT22;35952;52.524;13.340;2023-03-23T12:55:09;15.90;99.90
50067;DHT22;35952;52.524;13.340;2023-03-23T12:57:47;16.00;99.90
50067;DHT22;35952;52.524;13.340;2023-03-23T13:00:50;16.30;99.90
50067;DHT22;35952;52.524;13.340;2023-03-23T13:06:13;17.30;99.90
50067;DHT22;35952;52.524;13.340;2023-03-23T13:11:28;18.20;99.90
50067;DHT22;35952;52.524;13.340;2023-03-23T13:14:01;18.30;99.90
50067;DHT22;35952;52.524;13.340;2023-03-23T13:16:35;17.80;99.90
50067;DHT22;35952;52.524;13.340;2023-03-23T13:22:02;18.20;99.90
50067;DHT22;35952;52.524;13.340;2023-03-23T13:24:33;18.80;99.90
50067;DHT22;35952;52.524;13.340;2023-03-23T13:26:59;19.60;99.90
50067;DHT22;35952;52.524;13.340;2023-03-23T13:29:27;19.90;99.90
50067;DHT22;35952;52.524;13.340;2023-03-23T13:32:06;20.50;96.50
50067;DHT22;35952;52.524;13.340;2023-03-23T13:34:32;20.40;95.30
50067;DHT22;35952;52.524;13.340;2023-03-23T13:36:59;22.00;85.70
50067;DHT22;35952;52.524;13.340;2023-03-23T13:39:31;21.60;87.40
50067;DHT22;35952;52.524;13.340;2023-03-23T13:44:55;24.90;60.90
50067;DHT22;35952;52.524;13.340;2023-03-23T13:49:53;24.10;59.60
50067;DHT22;35952;52.524;13.340;2023-03-23T13:54:50;26.00;55.00
50067;DHT22;35952;52.524;13.340;2023-03-23T13:57:25;25.00;54.50
50067;DHT22;35952;52.524;13.340;2023-03-23T14:00:04;24.40;53.90
50067;DHT22;35952;52.524;13.340;2023-03-23T14:02:39;22.70;55.80
50067;DHT22;35952;52.524;13.340;2023-03-23T14:08:00;20.30;65.30
50067;DHT22;35952;52.524;13.340;2023-03-23T14:10:51;21.60;64.90
50067;DHT22;35952;52.524;13.340;2023-03-23T14:18:22;23.60;56.70
50067;DHT22;35952;52.524;13.340;2023-03-23T14:20:49;24.20;55.80
50067;DHT22;35952;52.524;13.340;2023-03-23T14:23:16;24.40;54.60
50067;DHT22;35952;52.524;13.340;2023-03-23T14:25:43;25.60;54.20
50067;DHT22;35952;52.524;13.340;2023-03-23T14:28:21;26.20;50.30
50067;DHT22;35952;52.524;13.340;2023-03-23T14:30:52;26.50;48.70
50067;DHT22;35952;52.524;13.340;2023-03-23T14:33:19;25.20;50.00
50067;DHT22;35952;52.524;13.340;2023-03-23T14:35:45;25.00;50.90
50067;DHT22;35952;52.524;13.340;2023-03-23T14:38:19;23.70;52.30
50067;DHT22;35952;52.524;13.340;2023-03-23T14:40:45;21.50;55.60
50067;DHT22;35952;52.524;13.340;2023-03-23T14:43:15;19.70;59.50
50067;DHT22;35952;52.524;13.340;2023-03-23T14:45:41;19.20;62.50
50067;DHT22;35952;52.524;13.340;2023-03-23T14:48:10;18.60;65.30
50067;DHT22;35952;52.524;13.340;2023-03-23T14:50:39;18.10;68.80
50067;DHT22;35952;52.524;13.340;2023-03-23T14:53:19;17.80;72.20
50067;DHT22;35952;52.524;13.340;2023-03-23T14:55:49;17.40;79.40
50067;DHT22;35952;52.524;13.340;2023-03-23T14:58:18;17.60;83.40
50067;DHT22;35952;52.524;13.340;2023-03-23T15:00:49;19.20;78.00
50067;DHT22;35952;52.524;13.340;2023-03-23T15:03:17;21.40;67.20
50067;DHT22;35952;52.524;13.340;2023-03-23T15:05:46;22.80;59.60
50067;DHT22;35952;52.524;13.340;2023-03-23T15:08:18;22.60;57.60
50067;DHT22;35952;52.524;13.340;2023-03-23T15:10:53;22.50;58.70
50067;DHT22;35952;52.524;13.340;2023-03-23T15:13:19;21.90;59.50
50067;DHT22;35952;52.524;13.340;2023-03-23T15:15:44;21.40;60.50
50067;DHT22;35952;52.524;13.340;2023-03-23T15:18:28;19.80;66.30
50067;DHT22;35952;52.524;13.340;2023-03-23T15:20:54;19.60;70.10
50067;DHT22;35952;52.524;13.340;2023-03-23T15:23:28;19.30;71.60
50067;DHT22;35952;52.524;13.340;2023-03-23T15:25:56;18.90;75.20
50067;DHT22;35952;52.524;13.340;2023-03-23T15:28:31;18.40;79.20
50067;DHT22;35952;52.524;13.340;2023-03-23T15:31:01;17.70;84.90
50067;DHT22;35952;52.524;13.340;2023-03-23T15:33:34;17.50;88.10
50067;DHT22;35952;52.524;13.340;2023-03-23T15:36:06;17.50;90.00
50067;DHT22;35952;52.524;13.340;2023-03-23T15:38:34;17.30;89.40
50067;DHT22;35952;52.524;13.340;2023-03-23T15:41:03;17.20;91.00
50067;DHT22;35952;52.524;13.340;2023-03-23T15:43:52;17.10;90.30
50067;DHT22;35952;52.524;13.340;2023-03-23T15:46:22;16.90;91.60
50067;DHT22;35952;52.524;13.340;2023-03-23T15:51:18;16.50;93.20
50067;DHT22;35952;52.524;13.340;2023-03-23T15:53:44;16.50;92.80
50067;DHT22;35952;52.524;13.340;2023-03-23T15:56:12;16.50;92.30
50067;DHT22;35952;52.524;13.340;2023-03-23T15:58:38;16.50;92.60
50067;DHT22;35952;52.524;13.340;2023-03-23T16:01:10;16.50;93.20
50067;DHT22;35952;52.524;13.340;2023-03-23T16:03:42;16.50;93.80
50067;DHT22;35952;52.524;13.340;2023-03-23T16:06:11;16.60;93.80
50067;DHT22;35952;52.524;13.340;2023-03-23T16:08:37;16.60;93.60
50067;DHT22;35952;52.524;13.340;2023-03-23T16:11:06;16.50;93.30
50067;DHT22;35952;52.524;13.340;2023-03-23T16:13:32;16.40;93.20
50067;DHT22;35952;52.524;13.340;2023-03-23T16:15:57;16.40;93.90
50067;DHT22;35952;52.524;13.340;2023-03-23T16:18:23;16.40;94.10
50067;DHT22;35952;52.524;13.340;2023-03-23T16:20:49;16.40;93.70
50067;DHT22;35952;52.524;13.340;2023-03-23T16:23:15;16.30;93.30
50067;DHT22;35952;52.524;13.340;2023-03-23T16:25:40;16.30;93.70
50067;DHT22;35952;52.524;13.340;2023-03-23T16:28:12;16.30;93.70
50067;DHT22;35952;52.524;13.340;2023-03-23T16:30:38;16.30;94.30
50067;DHT22;35952;52.524;13.340;2023-03-23T16:33:05;16.20;94.00
50067;DHT22;35952;52.524;13.340;2023-03-23T16:35:32;16.30;94.20
50067;DHT22;35952;52.524;13.340;2023-03-23T16:37:57;16.20;95.60
50067;DHT22;35952;52.524;13.340;2023-03-23T16:40:23;16.20;97.20
50067;DHT22;35952;52.524;13.340;2023-03-23T16:42:50;16.20;98.30
50067;DHT22;35952;52.524;13.340;2023-03-23T16:45:16;16.20;99.90
50067;DHT22;35952;52.524;13.340;2023-03-23T16:47:43;16.20;99.90
50067;DHT22;35952;52.524;13.340;2023-03-23T16:50:13;16.10;99.90
50067;DHT22;35952;52.524;13.340;2023-03-23T16:52:40;15.90;99.90
50067;DHT22;35952;52.524;13.340;2023-03-23T16:55:07;15.80;99.90
50067;DHT22;35952;52.524;13.340;2023-03-23T16:57:34;15.60;99.90